createdAt,value
2024-05-09T00:02:41.590Z,12.15
2024-05-09T00:05:44.622Z,12.03
2024-05-09T00:08:47.434Z,11.98
2024-05-09T00:11:50.096Z,11.99
2024-05-09T00:14:52.807Z,11.88
2024-05-09T00:17:55.559Z,11.74
2024-05-09T00:20:58.339Z,11.83
2024-05-09T00:24:00.954Z,11.64
2024-05-09T00:27:03.798Z,11.74
2024-05-09T00:30:07.281Z,11.71
2024-05-09T00:33:11.321Z,11.71
2024-05-09T00:36:14.551Z,11.65
2024-05-09T00:39:17.231Z,11.68
2024-05-09T00:42:19.811Z,11.54
2024-05-09T00:45:22.498Z,11.53
2024-05-09T00:48:27.079Z,11.60
2024-05-09T00:51:29.943Z,11.51
2024-05-09T00:54:33.310Z,11.57
2024-05-09T00:57:36.117Z,11.38
2024-05-09T01:00:41.063Z,11.54
2024-05-09T01:03:45.940Z,11.47
2024-05-09T01:06:49.340Z,11.35
2024-05-09T01:09:54.906Z,11.25
2024-05-09T01:12:57.609Z,11.18
2024-05-09T01:16:01.181Z,11.20
2024-05-09T01:19:04.854Z,11.17
2024-05-09T01:22:08.165Z,11.05
2024-05-09T01:25:10.838Z,11.00
2024-05-09T01:28:13.543Z,10.88
2024-05-09T01:31:16.210Z,10.94
2024-05-09T01:34:19.053Z,10.74
2024-05-09T01:37:21.722Z,10.62
2024-05-09T01:40:33.514Z,10.62
2024-05-09T01:43:40.434Z,10.60
2024-05-09T01:46:43.116Z,10.56
2024-05-09T01:49:45.977Z,10.70
2024-05-09T01:52:48.671Z,10.67
2024-05-09T01:55:51.459Z,10.67
2024-05-09T01:58:54.291Z,10.72
2024-05-09T02:01:57.922Z,10.57
2024-05-09T02:05:00.871Z,10.73
2024-05-09T02:08:04.345Z,10.82
2024-05-09T02:11:08.934Z,10.89
2024-05-09T02:14:11.837Z,11.09
2024-05-09T02:17:14.546Z,11.02
2024-05-09T02:20:26.734Z,11.07
2024-05-09T02:23:32.949Z,11.07
2024-05-09T02:26:35.774Z,11.13
2024-05-09T02:29:38.387Z,11.16
2024-05-09T02:32:41.347Z,11.10
2024-05-09T02:35:44.514Z,11.05
2024-05-09T02:38:47.311Z,11.03
2024-05-09T02:41:50.023Z,10.90
2024-05-09T02:44:55.003Z,10.81
2024-05-09T02:47:57.897Z,10.58
2024-05-09T02:51:02.755Z,10.49
2024-05-09T02:54:07.758Z,10.37
2024-05-09T02:57:10.415Z,10.40
2024-05-09T03:00:19.019Z,10.24
2024-05-09T03:03:28.770Z,10.26
2024-05-09T03:06:31.582Z,10.29
2024-05-09T03:09:34.232Z,10.31
2024-05-09T03:12:39.230Z,10.27
2024-05-09T03:15:42.570Z,10.15
2024-05-09T03:18:45.855Z,10.09
2024-05-09T03:21:48.537Z,10.17
2024-05-09T03:24:51.266Z,10.07
2024-05-09T03:27:53.865Z,10.14
2024-05-09T03:30:56.447Z,10.24
2024-05-09T03:33:59.113Z,10.24
2024-05-09T03:37:01.786Z,10.32
2024-05-09T03:40:07.368Z,10.40
2024-05-09T03:43:14.735Z,10.41
2024-05-09T03:46:17.590Z,10.34
2024-05-09T03:49:20.574Z,10.34
2024-05-09T03:52:23.247Z,10.39
2024-05-09T03:55:25.778Z,10.59
2024-05-09T03:58:28.350Z,10.51
2024-05-09T04:01:31.108Z,10.61
2024-05-09T04:04:33.930Z,10.88
2024-05-09T04:07:37.975Z,10.85
2024-05-09T04:10:41.104Z,10.86
2024-05-09T04:13:43.978Z,10.85
2024-05-09T04:16:46.836Z,11.05
2024-05-09T04:19:49.527Z,11.11
2024-05-09T04:22:52.222Z,11.05
2024-05-09T04:25:55.005Z,11.31
2024-05-09T04:28:58.057Z,11.45
2024-05-09T04:32:01.045Z,11.75
2024-05-09T04:35:03.985Z,11.94
2024-05-09T04:38:06.891Z,12.10
2024-05-09T04:41:09.605Z,12.29
2024-05-09T04:44:12.351Z,12.27
2024-05-09T04:47:15.780Z,12.39
2024-05-09T04:50:28.908Z,12.43
2024-05-09T04:53:36.732Z,12.42
2024-05-09T04:56:39.427Z,12.57
2024-05-09T04:59:42.364Z,12.71
2024-05-09T05:02:45.829Z,12.84
2024-05-09T05:05:50.502Z,12.98
2024-05-09T05:08:53.256Z,13.11
2024-05-09T05:11:56.045Z,13.33
2024-05-09T05:14:59.399Z,13.39
2024-05-09T05:18:02.171Z,13.48
2024-05-09T05:21:07.033Z,13.68
2024-05-09T05:24:09.657Z,13.74
2024-05-09T05:27:12.248Z,13.81
2024-05-09T05:30:21.518Z,13.80
2024-05-09T05:33:31.601Z,13.89
2024-05-09T05:36:34.419Z,14.00
2024-05-09T05:39:38.085Z,14.17
2024-05-09T05:42:40.814Z,14.29
2024-05-09T05:45:43.948Z,14.42
2024-05-09T05:48:49.748Z,14.47
2024-05-09T05:51:52.767Z,14.66
2024-05-09T05:54:55.586Z,14.77
2024-05-09T05:57:58.426Z,15.04
2024-05-09T06:01:01.141Z,15.23
2024-05-09T06:04:04.222Z,15.55
2024-05-09T06:07:07.123Z,15.87
2024-05-09T06:10:17.279Z,15.95
2024-05-09T06:13:24.300Z,16.11
2024-05-09T06:16:27.214Z,16.27
2024-05-09T06:19:32.268Z,16.59
2024-05-09T06:22:35.453Z,16.42
2024-05-09T06:25:39.556Z,16.35
2024-05-09T06:28:42.331Z,16.58
2024-05-09T06:31:46.286Z,17.03
2024-05-09T06:34:49.220Z,17.57
2024-05-09T06:37:52.848Z,17.80
2024-05-09T06:40:55.721Z,18.09
2024-05-09T06:43:58.597Z,18.55
2024-05-09T06:47:01.450Z,18.45
2024-05-09T06:50:08.340Z,18.35
2024-05-09T06:53:17.391Z,18.80
2024-05-09T06:56:20.232Z,19.01
2024-05-09T06:59:23.295Z,19.13
2024-05-09T07:02:26.421Z,19.64
2024-05-09T07:05:29.649Z,19.59
2024-05-09T07:08:33.184Z,19.37
2024-05-09T07:11:37.617Z,19.56
2024-05-09T07:14:40.483Z,19.76
2024-05-09T07:17:43.451Z,20.10
2024-05-09T07:20:47.942Z,20.70
2024-05-09T07:23:51.218Z,20.92
2024-05-09T07:26:54.055Z,21.81
2024-05-09T07:29:57.847Z,22.38
2024-05-09T07:33:01.007Z,22.65
2024-05-09T07:36:04.134Z,22.54
2024-05-09T07:39:06.940Z,23.10
2024-05-09T07:42:12.185Z,23.01
2024-05-09T07:45:30.113Z,22.21
2024-05-09T07:54:49.476Z,22.63
2024-05-09T07:57:52.679Z,23.39
2024-05-09T08:00:55.790Z,23.78
2024-05-09T08:03:58.771Z,24.22
2024-05-09T08:07:01.747Z,24.88
2024-05-09T08:10:10.646Z,25.34
2024-05-09T08:13:15.535Z,24.85
2024-05-09T08:16:18.261Z,25.18
2024-05-09T08:19:21.196Z,24.90
2024-05-09T08:22:24.244Z,25.21
2024-05-09T08:25:27.269Z,25.89
2024-05-09T08:28:30.128Z,26.08
2024-05-09T08:31:38.075Z,25.74
2024-05-09T08:34:41.223Z,25.18
2024-05-09T08:37:44.171Z,24.71
2024-05-09T08:40:48.784Z,25.01
2024-05-09T08:43:51.816Z,25.22
2024-05-09T08:46:54.739Z,25.70
2024-05-09T08:50:00.664Z,26.51
2024-05-09T08:53:03.482Z,26.19
2024-05-09T08:56:11.368Z,26.81
2024-05-09T08:59:23.928Z,27.16
2024-05-09T09:02:27.560Z,27.42
2024-05-09T09:05:31.645Z,27.61
2024-05-09T09:08:34.636Z,27.67
2024-05-09T09:11:37.412Z,27.23
2024-05-09T09:14:40.294Z,27.57
2024-05-09T09:17:54.523Z,27.67
2024-05-09T09:20:57.364Z,27.46
2024-05-09T09:24:00.048Z,28.00
2024-05-09T09:27:02.662Z,28.42
2024-05-09T09:30:13.180Z,28.06
2024-05-09T09:33:20.966Z,27.72
2024-05-09T09:36:23.741Z,27.85
2024-05-09T09:39:28.532Z,28.41
2024-05-09T09:42:34.497Z,27.95
2024-05-09T09:45:38.237Z,27.71
2024-05-09T09:48:42.165Z,28.14
2024-05-09T09:51:46.727Z,27.85
2024-05-09T09:54:50.868Z,28.16
2024-05-09T09:57:56.340Z,28.65
2024-05-09T10:01:01.843Z,29.16
2024-05-09T10:04:05.686Z,28.64
2024-05-09T10:07:10.688Z,29.27
2024-05-09T10:10:29.897Z,29.16
2024-05-09T10:13:35.693Z,28.22
2024-05-09T10:16:45.016Z,28.31
2024-05-09T10:19:47.788Z,28.89
2024-05-09T10:22:50.583Z,29.31
2024-05-09T10:26:00.210Z,27.96
2024-05-09T10:29:16.465Z,28.40
2024-05-09T10:32:19.380Z,28.81
2024-05-09T10:35:22.798Z,29.06
2024-05-09T10:38:26.412Z,29.84
2024-05-09T10:41:29.371Z,30.20
2024-05-09T10:44:38.090Z,29.38
2024-05-09T10:47:42.376Z,30.17
2024-05-09T10:50:47.032Z,30.01
2024-05-09T10:53:49.840Z,29.60
2024-05-09T10:56:58.610Z,29.64
2024-05-09T11:00:01.759Z,29.84
2024-05-09T11:03:04.931Z,29.88
2024-05-09T11:06:09.794Z,30.09
2024-05-09T11:09:13.431Z,30.20
2024-05-09T11:12:16.536Z,29.92
2024-05-09T11:15:19.415Z,30.11
2024-05-09T11:18:28.200Z,30.06
2024-05-09T11:21:32.858Z,29.86
2024-05-09T11:24:35.956Z,29.81
2024-05-09T11:27:41.032Z,29.89
2024-05-09T11:30:43.945Z,29.71
2024-05-09T11:33:47.102Z,29.52
2024-05-09T11:36:50.114Z,29.57
2024-05-09T11:39:54.059Z,29.73
2024-05-09T11:42:57.005Z,29.67
2024-05-09T11:46:00.468Z,29.66
2024-05-09T11:49:03.533Z,30.00
2024-05-09T11:52:06.600Z,29.01
2024-05-09T11:55:09.660Z,28.76
2024-05-09T11:58:14.769Z,28.48
2024-05-09T12:01:20.098Z,28.23
2024-05-09T12:04:23.756Z,29.17
2024-05-09T12:07:26.807Z,29.62
2024-05-09T12:10:33.943Z,29.72
2024-05-09T12:13:38.628Z,29.83
2024-05-09T12:16:43.359Z,30.10
2024-05-09T12:19:48.034Z,29.95
2024-05-09T12:22:51.179Z,29.89
2024-05-09T12:25:54.507Z,30.20
2024-05-09T12:28:58.860Z,29.53
2024-05-09T12:32:02.700Z,29.50
2024-05-09T12:35:05.610Z,29.88
2024-05-09T12:38:08.718Z,29.68
2024-05-09T12:41:11.440Z,29.05
2024-05-09T12:44:14.428Z,28.93
2024-05-09T12:47:17.136Z,29.20
2024-05-09T12:50:28.806Z,29.49
2024-05-09T12:53:36.234Z,29.57
2024-05-09T12:56:39.007Z,29.34
2024-05-09T12:59:42.578Z,29.41
2024-05-09T13:02:47.524Z,29.22
2024-05-09T13:05:51.788Z,29.01
2024-05-09T13:08:54.637Z,28.77
2024-05-09T13:11:57.327Z,28.52
2024-05-09T13:15:00.026Z,28.87
2024-05-09T13:18:04.057Z,28.56
2024-05-09T13:21:07.294Z,28.60
2024-05-09T13:24:10.100Z,28.67
2024-05-09T13:27:12.739Z,28.58
2024-05-09T13:30:22.052Z,28.65
2024-05-09T13:33:33.373Z,28.68
2024-05-09T13:36:36.440Z,28.34
2024-05-09T13:39:39.100Z,28.16
2024-05-09T13:42:41.781Z,28.18
2024-05-09T13:45:44.523Z,27.94
2024-05-09T13:48:47.334Z,27.58
2024-05-09T13:51:51.986Z,27.64
2024-05-09T13:54:54.939Z,28.02
2024-05-09T13:57:57.810Z,27.80
2024-05-09T14:01:00.626Z,28.21
2024-05-09T14:04:03.731Z,27.83
2024-05-09T14:07:07.594Z,27.70
2024-05-09T14:10:19.752Z,27.14
2024-05-09T14:13:28.791Z,26.92
2024-05-09T14:16:32.889Z,26.68
2024-05-09T14:19:36.174Z,27.01
2024-05-09T14:22:40.987Z,26.95
2024-05-09T14:25:45.046Z,27.19
2024-05-09T14:28:48.626Z,27.33
2024-05-09T14:31:51.252Z,27.13
2024-05-09T14:34:54.683Z,27.09
2024-05-09T14:37:58.267Z,27.14
2024-05-09T14:41:01.003Z,27.15
2024-05-09T14:44:04.207Z,26.92
2024-05-09T14:47:07.929Z,26.39
2024-05-09T14:50:16.837Z,26.48
2024-05-09T14:53:27.147Z,26.11
2024-05-09T14:56:30.028Z,26.33
2024-05-09T14:59:32.753Z,26.27
2024-05-09T15:02:35.903Z,26.21
2024-05-09T15:05:38.810Z,26.00
2024-05-09T15:08:41.990Z,26.01
2024-05-09T15:11:46.013Z,25.89
2024-05-09T15:14:48.826Z,25.60
2024-05-09T15:17:52.473Z,25.52
2024-05-09T15:20:55.483Z,25.50
2024-05-09T15:23:58.252Z,25.60
2024-05-09T15:27:01.009Z,25.20
2024-05-09T15:30:06.863Z,25.22
2024-05-09T15:33:11.851Z,24.98
2024-05-09T15:36:14.699Z,24.97
2024-05-09T15:39:17.758Z,24.76
2024-05-09T15:42:20.455Z,24.51
2024-05-09T15:45:23.057Z,24.22
2024-05-09T15:48:25.983Z,24.18
2024-05-09T15:51:29.249Z,24.27
2024-05-09T15:54:31.949Z,23.94
2024-05-09T15:57:34.684Z,24.15
2024-05-09T16:00:41.634Z,24.04
2024-05-09T16:03:47.117Z,23.78
2024-05-09T16:06:50.752Z,23.86
2024-05-09T16:09:56.474Z,23.59
2024-05-09T16:12:59.446Z,23.49
2024-05-09T16:16:02.350Z,23.45
2024-05-09T16:19:05.218Z,23.47
2024-05-09T16:22:08.280Z,23.45
2024-05-09T16:25:11.123Z,23.19
2024-05-09T16:28:14.125Z,23.12
2024-05-09T16:31:17.020Z,22.64
2024-05-09T16:34:19.885Z,22.57
2024-05-09T16:37:24.248Z,22.53
2024-05-09T16:40:37.727Z,22.33
2024-05-09T16:43:43.069Z,22.27
2024-05-09T16:46:46.112Z,22.25
2024-05-09T16:49:48.994Z,22.18
2024-05-09T16:52:51.726Z,22.15
2024-05-09T16:55:55.044Z,21.86
2024-05-09T16:58:57.721Z,21.75
2024-05-09T17:02:00.682Z,21.67
2024-05-09T17:05:04.011Z,21.44
2024-05-09T17:08:07.524Z,21.41
2024-05-09T17:11:12.374Z,21.23
2024-05-09T17:14:15.328Z,21.04
2024-05-09T17:17:20.038Z,20.99
2024-05-09T17:20:29.772Z,20.88
2024-05-09T17:23:37.234Z,20.73
2024-05-09T17:26:39.951Z,20.66
2024-05-09T17:29:42.590Z,20.45
2024-05-09T17:32:45.302Z,20.23
2024-05-09T17:35:50.770Z,20.16
2024-05-09T17:38:53.627Z,20.10
2024-05-09T17:41:56.233Z,19.87
2024-05-09T17:44:58.800Z,19.62
2024-05-09T17:48:01.970Z,19.50
2024-05-09T17:51:05.296Z,19.42
2024-05-09T17:54:07.885Z,19.11
2024-05-09T17:57:10.563Z,18.89
2024-05-09T18:00:14.934Z,18.88
2024-05-09T18:03:23.307Z,18.92
2024-05-09T18:06:26.380Z,18.66
2024-05-09T18:09:29.112Z,18.65
2024-05-09T18:12:31.838Z,18.37
2024-05-09T18:15:36.425Z,18.30
2024-05-09T18:18:39.573Z,18.20
2024-05-09T18:21:42.829Z,18.23
2024-05-09T18:24:46.069Z,18.04
2024-05-09T18:27:48.950Z,17.92
2024-05-09T18:30:51.727Z,17.87
2024-05-09T18:33:55.355Z,17.71
2024-05-09T18:36:59.258Z,17.68
2024-05-09T18:40:09.230Z,17.56
2024-05-09T18:43:14.424Z,17.45
2024-05-09T18:46:18.252Z,17.42
2024-05-09T18:49:21.126Z,17.31
2024-05-09T18:52:24.534Z,17.34
2024-05-09T18:55:27.251Z,17.19
2024-05-09T18:58:29.952Z,17.16
2024-05-09T19:01:33.602Z,17.11
2024-05-09T19:04:36.955Z,17.18
2024-05-09T19:07:40.526Z,17.03
2024-05-09T19:10:45.985Z,16.93
2024-05-09T19:13:49.068Z,16.85
2024-05-09T19:16:52.665Z,16.84
2024-05-09T19:19:56.644Z,16.53
2024-05-09T19:22:59.626Z,16.50
2024-05-09T19:26:03.172Z,16.31
2024-05-09T19:29:05.741Z,16.24
2024-05-09T19:32:08.641Z,16.21
2024-05-09T19:35:11.572Z,16.07
2024-05-09T19:38:14.578Z,15.98
2024-05-09T19:41:17.939Z,16.06
2024-05-09T19:44:20.953Z,16.06
2024-05-09T19:47:24.382Z,16.03
2024-05-09T19:50:36.818Z,16.03
2024-05-09T19:53:44.870Z,15.73
2024-05-09T19:56:47.570Z,15.81
2024-05-09T19:59:50.617Z,15.81
2024-05-09T20:02:53.890Z,15.63
2024-05-09T20:06:02.487Z,15.59
2024-05-09T20:09:06.515Z,15.51
2024-05-09T20:12:09.694Z,15.48
2024-05-09T20:15:13.529Z,15.34
2024-05-09T20:18:18.373Z,15.23
2024-05-09T20:21:22.148Z,15.12
2024-05-09T20:24:25.569Z,15.08
2024-05-09T20:27:29.229Z,15.04
2024-05-09T20:30:36.266Z,14.92
2024-05-09T20:33:39.812Z,14.97
2024-05-09T20:36:42.791Z,14.69
2024-05-09T20:39:45.667Z,14.80
2024-05-09T20:42:48.724Z,14.72
2024-05-09T20:45:51.663Z,14.59
2024-05-09T20:48:56.350Z,14.56
2024-05-09T20:51:59.505Z,14.58
2024-05-09T20:55:02.697Z,14.46
2024-05-09T20:58:13.113Z,14.27
2024-05-09T21:01:16.391Z,14.13
2024-05-09T21:04:19.680Z,14.27
2024-05-09T21:07:22.499Z,14.41
2024-05-09T21:10:33.316Z,14.44
2024-05-09T21:13:36.824Z,14.20
2024-05-09T21:16:41.155Z,14.33
2024-05-09T21:19:44.067Z,14.18
2024-05-09T21:22:46.726Z,14.17
2024-05-09T21:25:49.471Z,14.05
2024-05-09T21:28:52.287Z,14.06
2024-05-09T21:31:55.407Z,13.99
2024-05-09T21:34:58.077Z,13.90
2024-05-09T21:38:07.709Z,13.93
2024-05-09T21:41:10.900Z,13.92
2024-05-09T21:44:13.829Z,13.82
2024-05-09T21:47:18.543Z,13.64
2024-05-09T21:50:28.000Z,13.62
2024-05-09T21:53:37.282Z,13.44
2024-05-09T21:56:40.667Z,13.18
2024-05-09T21:59:43.358Z,13.34
2024-05-09T22:02:46.076Z,13.48
2024-05-09T22:05:48.795Z,13.49
2024-05-09T22:08:51.462Z,12.77
2024-05-09T22:11:54.551Z,12.52
2024-05-09T22:14:57.303Z,12.71
2024-05-09T22:18:00.172Z,12.51
2024-05-09T22:21:02.779Z,12.60
2024-05-09T22:24:05.918Z,12.79
2024-05-09T22:27:11.994Z,12.86
2024-05-09T22:30:21.114Z,12.86
2024-05-09T22:33:26.768Z,12.95
2024-05-09T22:36:29.435Z,12.83
2024-05-09T22:39:32.056Z,12.81
2024-05-09T22:42:34.662Z,12.73
2024-05-09T22:45:37.318Z,12.45
2024-05-09T22:48:40.061Z,12.41
2024-05-09T22:51:42.765Z,12.48
2024-05-09T22:54:45.610Z,12.69
2024-05-09T22:57:48.457Z,12.64
2024-05-09T23:00:51.270Z,12.20
2024-05-09T23:03:54.130Z,12.14
2024-05-09T23:06:56.978Z,12.15
2024-05-09T23:09:59.589Z,12.12
2024-05-09T23:13:02.542Z,12.11
2024-05-09T23:16:05.710Z,12.07
2024-05-09T23:19:09.773Z,12.02
2024-05-09T23:22:14.307Z,12.03
2024-05-09T23:25:17.142Z,11.96
2024-05-09T23:28:20.203Z,11.88
2024-05-09T23:31:24.340Z,11.77
2024-05-09T23:34:27.529Z,11.72
2024-05-09T23:37:30.249Z,11.57
2024-05-09T23:40:39.310Z,11.59
2024-05-09T23:43:43.837Z,11.61
2024-05-09T23:46:46.578Z,11.55
2024-05-09T23:49:49.572Z,11.64
2024-05-09T23:52:52.179Z,11.62
2024-05-09T23:55:54.904Z,11.47
2024-05-09T23:58:57.766Z,11.66
